createdAt,value
2019-06-01T00:00:35.122Z,14.03
2019-06-01T00:03:06.144Z,13.99
2019-06-01T00:05:36.532Z,14.06
2019-06-01T00:08:07.947Z,14.07
2019-06-01T00:10:38.971Z,14.02
2019-06-01T00:13:16.078Z,13.97
2019-06-01T00:15:48.280Z,13.92
2019-06-01T00:18:19.550Z,13.89
2019-06-01T00:20:54.928Z,13.84
2019-06-01T00:23:26.142Z,13.83
2019-06-01T00:25:57.080Z,13.78
2019-06-01T00:28:28.254Z,13.75
2019-06-01T00:30:59.232Z,13.69
2019-06-01T00:33:30.378Z,13.63
2019-06-01T00:36:01.806Z,13.58
2019-06-01T00:38:32.955Z,13.56
2019-06-01T00:41:04.206Z,13.55
2019-06-01T00:43:34.234Z,13.48
2019-06-01T00:46:05.567Z,13.45
2019-06-01T00:48:36.544Z,13.41
2019-06-01T00:51:07.814Z,13.42
2019-06-01T00:53:38.918Z,13.37
2019-06-01T00:56:10.082Z,13.29
2019-06-01T00:58:41.067Z,13.26
2019-06-01T01:01:12.898Z,13.21
2019-06-01T01:03:44.025Z,13.23
2019-06-01T01:06:17.586Z,13.25
2019-06-01T01:08:49.067Z,13.25
2019-06-01T01:11:20.426Z,13.26
2019-06-01T01:13:51.384Z,13.23
2019-06-01T01:16:21.470Z,13.19
2019-06-01T01:18:53.776Z,13.16
2019-06-01T01:21:24.787Z,13.06
2019-06-01T01:23:56.720Z,12.98
2019-06-01T01:26:30.087Z,12.89
2019-06-01T01:29:01.339Z,12.82
2019-06-01T01:31:32.339Z,12.78
2019-06-01T01:34:03.743Z,12.77
2019-06-01T01:36:34.669Z,12.81
2019-06-01T01:39:07.904Z,12.92
2019-06-01T01:41:38.807Z,12.96
2019-06-01T01:44:10.057Z,12.95
2019-06-01T01:46:40.975Z,12.84
2019-06-01T01:49:12.241Z,12.74
2019-06-01T01:51:43.257Z,12.67
2019-06-01T01:54:13.373Z,12.60
2019-06-01T01:56:44.547Z,12.54
2019-06-01T01:59:15.480Z,12.50
2019-06-01T02:01:46.669Z,12.47
2019-06-01T02:04:17.569Z,12.41
2019-06-01T02:06:48.850Z,12.37
2019-06-01T02:09:19.894Z,12.34
2019-06-01T02:11:51.386Z,12.31
2019-06-01T02:14:22.449Z,12.31
2019-06-01T02:16:53.934Z,12.32
2019-06-01T02:19:27.874Z,12.27
2019-06-01T02:21:59.061Z,12.27
2019-06-01T02:24:30.045Z,12.26
2019-06-01T02:27:01.320Z,12.23
2019-06-01T02:29:32.596Z,12.16
2019-06-01T02:32:04.705Z,12.09
2019-06-01T02:34:36.422Z,12.07
2019-06-01T02:37:07.351Z,12.03
2019-06-01T02:39:38.765Z,12.03
2019-06-01T02:42:11.388Z,12.03
2019-06-01T02:44:42.469Z,11.98
2019-06-01T02:47:13.384Z,12.05
2019-06-01T02:49:44.810Z,12.04
2019-06-01T02:52:15.711Z,12.06
2019-06-01T02:54:47.068Z,12.10
2019-06-01T02:57:18.030Z,12.05
2019-06-01T02:59:48.224Z,11.97
2019-06-01T03:02:23.847Z,11.89
2019-06-01T03:04:55.503Z,11.85
2019-06-01T03:07:29.743Z,11.87
2019-06-01T03:10:03.130Z,11.89
2019-06-01T03:12:37.404Z,11.86
2019-06-01T03:15:08.651Z,11.83
2019-06-01T03:17:41.906Z,11.82
2019-06-01T03:20:13.309Z,11.79
2019-06-01T03:22:46.099Z,11.75
2019-06-01T03:25:17.113Z,11.74
2019-06-01T03:27:51.592Z,11.73
2019-06-01T03:30:45.341Z,11.72
2019-06-01T03:33:15.521Z,11.76
2019-06-01T03:35:46.752Z,11.79
2019-06-01T03:38:17.971Z,11.76
2019-06-01T03:40:48.959Z,11.72
2019-06-01T03:43:19.460Z,11.73
2019-06-01T03:45:50.645Z,11.72
2019-06-01T03:48:21.607Z,11.73
2019-06-01T03:50:52.806Z,11.74
2019-06-01T03:53:23.694Z,11.78
2019-06-01T03:55:54.784Z,11.81
2019-06-01T03:58:25.852Z,11.84
2019-06-01T04:00:57.054Z,11.90
2019-06-01T04:03:28.028Z,11.93
2019-06-01T04:05:59.266Z,11.98
2019-06-01T04:08:30.278Z,12.03
2019-06-01T04:11:01.992Z,12.09
2019-06-01T04:13:33.110Z,12.16
2019-06-01T04:16:03.744Z,12.22
2019-06-01T04:18:35.143Z,12.31
2019-06-01T04:21:06.200Z,12.37
2019-06-01T04:23:37.382Z,12.39
2019-06-01T04:26:08.396Z,12.46
2019-06-01T04:28:39.474Z,12.57
2019-06-01T04:31:10.875Z,12.67
2019-06-01T04:33:42.183Z,12.78
2019-06-01T04:36:13.179Z,12.88
2019-06-01T04:38:44.350Z,12.94
2019-06-01T04:41:15.350Z,13.02
2019-06-01T04:43:46.894Z,13.09
2019-06-01T04:46:17.826Z,13.16
2019-06-01T04:48:48.974Z,13.22
2019-06-01T04:51:20.018Z,13.21
2019-06-01T04:53:50.085Z,13.20
2019-06-01T04:56:21.163Z,13.25
2019-06-01T04:58:52.157Z,13.35
2019-06-01T05:01:23.238Z,13.46
2019-06-01T05:03:54.177Z,13.54
2019-06-01T05:06:25.356Z,13.61
2019-06-01T05:08:56.430Z,13.70
2019-06-01T05:11:27.817Z,13.81
2019-06-01T05:13:58.814Z,13.85
2019-06-01T05:16:30.099Z,13.90
2019-06-01T05:19:01.048Z,13.96
2019-06-01T05:21:32.250Z,14.02
2019-06-01T05:24:03.165Z,14.13
2019-06-01T05:26:33.280Z,14.21
2019-06-01T05:29:04.626Z,14.30
2019-06-01T05:31:35.623Z,14.39
2019-06-01T05:34:07.718Z,14.46
2019-06-01T05:36:38.680Z,14.53
2019-06-01T05:39:10.303Z,14.66
2019-06-01T05:41:41.495Z,14.79
2019-06-01T05:44:12.926Z,14.96
2019-06-01T05:46:43.928Z,15.08
2019-06-01T05:49:16.417Z,15.24
2019-06-01T05:51:47.650Z,15.44
2019-06-01T05:54:19.036Z,15.58
2019-06-01T05:56:55.941Z,15.70
2019-06-01T05:59:26.922Z,16.11
2019-06-01T06:02:00.354Z,17.30
2019-06-01T06:04:31.768Z,18.38
2019-06-01T06:07:05.717Z,19.02
2019-06-01T06:09:38.357Z,19.56
2019-06-01T06:12:11.130Z,20.20
2019-06-01T06:14:42.233Z,20.60
2019-06-01T06:17:15.775Z,21.53
2019-06-01T06:19:47.709Z,22.68
2019-06-01T06:22:19.029Z,24.09
2019-06-01T06:24:52.594Z,25.42
2019-06-01T06:27:24.559Z,25.97
2019-06-01T06:29:55.482Z,26.99
2019-06-01T06:32:26.793Z,27.90
2019-06-01T06:34:57.778Z,28.65
2019-06-01T06:37:28.177Z,28.23
2019-06-01T06:39:59.677Z,29.50
2019-06-01T06:42:33.597Z,29.37
2019-06-01T06:45:06.503Z,29.46
2019-06-01T06:47:37.509Z,29.11
2019-06-01T06:50:10.456Z,30.38
2019-06-01T06:52:41.428Z,30.03
2019-06-01T06:55:12.634Z,30.23
2019-06-01T06:57:43.696Z,30.47
2019-06-01T07:00:16.277Z,30.86
2019-06-01T07:02:47.293Z,31.87
2019-06-01T07:05:21.335Z,31.91
2019-06-01T07:07:54.164Z,31.84
2019-06-01T07:10:26.231Z,31.76
2019-06-01T07:12:57.362Z,32.37
2019-06-01T07:15:27.698Z,31.83
2019-06-01T07:17:59.074Z,30.89
2019-06-01T07:20:30.045Z,29.97
2019-06-01T07:23:01.193Z,29.69
2019-06-01T07:25:33.036Z,29.30
2019-06-01T07:28:04.690Z,29.15
2019-06-01T07:30:49.821Z,28.91
2019-06-01T07:33:11.551Z,27.94
2019-06-01T07:35:42.435Z,27.73
2019-06-01T07:38:13.850Z,27.38
2019-06-01T07:40:44.832Z,26.89
2019-06-01T07:43:16.013Z,27.04
2019-06-01T07:45:47.012Z,27.03
2019-06-01T07:48:17.552Z,26.52
2019-06-01T07:50:48.862Z,26.41
2019-06-01T07:53:20.966Z,26.02
2019-06-01T07:55:55.169Z,26.02
2019-06-01T07:58:33.145Z,26.20
2019-06-01T08:01:04.432Z,26.15
2019-06-01T08:03:35.357Z,26.10
2019-06-01T08:06:06.555Z,26.43
2019-06-01T08:08:37.725Z,26.43
2019-06-01T08:11:08.990Z,26.40
2019-06-01T08:13:40.165Z,26.40
2019-06-01T08:16:11.491Z,26.53
2019-06-01T08:18:43.218Z,26.53
2019-06-01T08:21:14.474Z,26.57
2019-06-01T08:23:45.688Z,26.57
2019-06-01T08:26:19.840Z,26.71
2019-06-01T08:28:48.871Z,26.71
2019-06-01T08:31:22.952Z,27.07
2019-06-01T08:33:54.376Z,27.41
2019-06-01T08:36:25.430Z,27.87
2019-06-01T08:38:56.740Z,27.79
2019-06-01T08:41:36.759Z,27.79
2019-06-01T08:44:08.171Z,27.61
2019-06-01T08:46:42.638Z,27.87
2019-06-01T08:49:13.937Z,28.21
2019-06-01T08:51:46.694Z,28.40
2019-06-01T08:54:18.089Z,28.75
2019-06-01T08:56:49.287Z,28.90
2019-06-01T08:59:21.046Z,28.05
2019-06-01T09:01:52.210Z,28.03
2019-06-01T09:04:22.530Z,28.46
2019-06-01T09:06:54.022Z,28.48
2019-06-01T09:09:25.276Z,28.50
2019-06-01T09:11:56.520Z,28.58
2019-06-01T09:14:29.200Z,28.74
2019-06-01T09:17:03.545Z,28.97
2019-06-01T09:19:35.754Z,28.98
2019-06-01T09:22:07.144Z,28.79
2019-06-01T09:24:38.291Z,27.95
2019-06-01T09:27:09.521Z,28.39
2019-06-01T09:29:44.550Z,27.78
2019-06-01T09:32:13.575Z,26.61
2019-06-01T09:34:44.624Z,26.61
2019-06-01T09:37:14.898Z,26.62
2019-06-01T09:39:46.134Z,26.62
2019-06-01T09:42:17.127Z,27.01
2019-06-01T09:44:48.332Z,27.01
2019-06-01T09:47:19.470Z,28.27
2019-06-01T09:49:51.397Z,28.06
2019-06-01T09:52:22.520Z,27.92
2019-06-01T09:54:53.842Z,27.92
2019-06-01T09:57:27.942Z,28.58
2019-06-01T09:59:59.352Z,29.07
2019-06-01T10:02:34.115Z,29.39
2019-06-01T10:05:05.992Z,29.37
2019-06-01T10:07:39.089Z,29.08
2019-06-01T10:10:13.024Z,29.62
2019-06-01T10:12:47.666Z,29.89
2019-06-01T10:15:18.037Z,30.04
2019-06-01T10:17:49.567Z,29.66
2019-06-01T10:20:20.688Z,28.12
2019-06-01T10:22:51.936Z,26.65
2019-06-01T10:25:23.019Z,25.82
2019-06-01T10:27:54.284Z,25.84
2019-06-01T10:30:28.319Z,26.00
2019-06-01T10:32:59.640Z,27.51
2019-06-01T10:35:30.807Z,29.24
2019-06-01T10:38:02.082Z,29.24
2019-06-01T10:40:33.427Z,30.77
2019-06-01T10:43:05.062Z,31.80
2019-06-01T10:45:36.207Z,32.55
2019-06-01T10:48:06.517Z,33.46
2019-06-01T10:50:38.474Z,33.43
2019-06-01T10:53:09.642Z,32.90
2019-06-01T10:55:42.356Z,32.61
2019-06-01T10:58:13.577Z,32.70
2019-06-01T11:00:50.609Z,33.26
2019-06-01T11:03:17.726Z,33.51
2019-06-01T11:05:50.275Z,33.97
2019-06-01T11:08:21.295Z,34.12
2019-06-01T11:10:52.602Z,33.25
2019-06-01T11:13:23.758Z,32.16
2019-06-01T11:15:55.173Z,32.29
2019-06-01T11:18:26.715Z,33.38
2019-06-01T11:20:57.047Z,32.31
2019-06-01T11:23:28.203Z,32.83
2019-06-01T11:25:59.347Z,33.70
2019-06-01T11:28:30.705Z,34.19
2019-06-01T11:31:01.933Z,34.89
2019-06-01T11:33:34.136Z,35.50
2019-06-01T11:36:05.702Z,35.74
2019-06-01T11:38:38.365Z,35.51
2019-06-01T11:44:19.507Z,35.74
2019-06-01T11:46:50.974Z,35.16
2019-06-01T11:49:22.325Z,35.52
2019-06-01T11:51:53.282Z,36.16
2019-06-01T11:54:24.648Z,36.26
2019-06-01T11:56:55.702Z,35.30
2019-06-01T11:59:26.982Z,35.07
2019-06-01T12:01:58.347Z,35.30
2019-06-01T12:04:28.566Z,35.53
2019-06-01T12:07:16.354Z,35.39
2019-06-01T12:09:32.579Z,34.11
2019-06-01T12:12:04.017Z,33.77
2019-06-01T12:14:36.308Z,33.66
2019-06-01T12:17:07.792Z,33.17
2019-06-01T12:19:38.870Z,32.15
2019-06-01T12:22:10.047Z,33.02
2019-06-01T12:24:41.109Z,32.99
2019-06-01T12:27:12.412Z,32.54
2019-06-01T12:29:56.059Z,32.87
2019-06-01T12:32:27.377Z,33.47
2019-06-01T12:35:02.823Z,34.12
2019-06-01T12:37:45.534Z,34.93
2019-06-01T12:40:07.576Z,35.27
2019-06-01T12:42:37.090Z,34.49
2019-06-01T12:45:10.304Z,33.88
2019-06-01T12:47:41.801Z,34.37
2019-06-01T12:50:13.407Z,34.44
2019-06-01T12:52:59.520Z,35.13
2019-06-01T12:55:40.540Z,35.20
2019-06-01T12:58:11.828Z,34.85
2019-06-01T13:00:44.201Z,34.81
2019-06-01T13:03:17.194Z,34.33
2019-06-01T13:05:49.670Z,34.35
2019-06-01T13:08:21.134Z,34.40
2019-06-01T13:10:52.601Z,33.87
2019-06-01T13:13:25.163Z,34.24
2019-06-01T13:15:56.469Z,35.39
2019-06-01T13:18:39.251Z,36.50
2019-06-01T13:27:39.981Z,31.81
2019-06-01T13:33:57.016Z,31.12
2019-06-01T13:39:18.965Z,30.79
2019-06-01T13:54:57.070Z,32.26
2019-06-01T13:57:34.744Z,33.16
2019-06-01T14:00:10.075Z,33.16
2019-06-01T14:02:41.243Z,33.61
2019-06-01T14:05:12.725Z,34.33
2019-06-01T14:07:45.146Z,34.11
2019-06-01T14:10:16.932Z,34.09
2019-06-01T14:12:49.318Z,34.40
2019-06-01T14:15:19.885Z,34.38
2019-06-01T14:17:52.320Z,33.32
2019-06-01T14:20:23.565Z,33.18
2019-06-01T14:22:56.009Z,33.60
2019-06-01T14:25:27.196Z,33.86
2019-06-01T14:27:58.621Z,33.49
2019-06-01T14:30:29.699Z,32.74
2019-06-01T14:33:00.966Z,32.61
2019-06-01T14:35:35.492Z,32.78
2019-06-01T14:38:05.110Z,32.40
2019-06-01T14:40:36.256Z,32.53
2019-06-01T14:43:07.635Z,32.42
2019-06-01T14:45:38.706Z,32.64
2019-06-01T14:48:08.846Z,32.65
2019-06-01T14:50:40.217Z,32.69
2019-06-01T14:53:11.367Z,32.87
2019-06-01T14:55:42.528Z,33.00
2019-06-01T14:58:13.505Z,32.71
2019-06-01T15:00:44.674Z,31.93
2019-06-01T15:03:15.704Z,31.70
2019-06-01T15:05:48.171Z,32.49
2019-06-01T15:08:19.333Z,32.91
2019-06-01T15:10:50.848Z,33.50
2019-06-01T15:13:22.197Z,33.57
2019-06-01T15:15:53.581Z,33.46
2019-06-01T15:18:24.807Z,33.63
2019-06-01T15:20:56.235Z,33.37
2019-06-01T15:23:27.315Z,33.28
2019-06-01T15:25:58.495Z,33.05
2019-06-01T15:28:29.913Z,33.15
2019-06-01T15:31:01.074Z,33.17
2019-06-01T15:33:33.047Z,33.31
2019-06-01T15:36:04.945Z,32.98
2019-06-01T15:38:36.292Z,33.08
2019-06-01T15:41:07.419Z,33.36
2019-06-01T15:43:38.752Z,33.49
2019-06-01T15:46:09.797Z,32.88
2019-06-01T15:48:41.215Z,32.45
2019-06-01T15:51:12.368Z,31.04
2019-06-01T15:53:43.642Z,31.41
2019-06-01T15:56:14.806Z,31.92
2019-06-01T15:58:52.941Z,31.89
2019-06-01T16:01:18.069Z,31.57
2019-06-01T16:03:49.171Z,31.28
2019-06-01T16:06:20.401Z,31.04
2019-06-01T16:08:51.530Z,30.82
2019-06-01T16:11:22.669Z,30.59
2019-06-01T16:13:53.735Z,30.39
2019-06-01T16:16:25.169Z,30.47
2019-06-01T16:18:59.914Z,30.44
2019-06-01T16:21:29.340Z,30.36
2019-06-01T16:24:00.484Z,30.63
2019-06-01T16:26:31.796Z,30.84
2019-06-01T16:29:04.980Z,30.69
2019-06-01T16:31:35.419Z,30.87
2019-06-01T16:34:06.705Z,31.19
2019-06-01T16:36:37.783Z,31.41
2019-06-01T16:39:09.933Z,31.34
2019-06-01T16:41:40.978Z,31.18
2019-06-01T16:44:12.303Z,30.04
2019-06-01T16:46:43.374Z,29.12
2019-06-01T16:49:14.807Z,28.66
2019-06-01T16:51:59.088Z,28.23
2019-06-01T16:54:30.668Z,28.23
2019-06-01T16:57:02.897Z,28.42
2019-06-01T16:59:34.534Z,28.71
2019-06-01T17:02:08.953Z,28.84
2019-06-01T17:04:42.334Z,29.16
2019-06-01T17:07:16.445Z,29.15
2019-06-01T17:09:46.708Z,29.15
2019-06-01T17:12:18.039Z,28.93
2019-06-01T17:14:49.158Z,29.08
2019-06-01T17:17:20.500Z,29.22
2019-06-01T17:19:51.630Z,29.12
2019-06-01T17:22:23.018Z,29.31
2019-06-01T17:25:03.779Z,28.87
2019-06-01T17:27:35.017Z,28.62
2019-06-01T17:30:09.921Z,28.39
2019-06-01T17:32:39.834Z,28.53
2019-06-01T17:35:12.485Z,28.63
2019-06-01T17:37:43.685Z,28.58
2019-06-01T17:40:14.908Z,28.66
2019-06-01T17:42:46.171Z,28.67
2019-06-01T17:45:17.442Z,28.50
2019-06-01T17:47:47.798Z,27.99
2019-06-01T17:50:21.385Z,27.99
2019-06-01T17:52:52.589Z,27.97
2019-06-01T17:55:29.522Z,27.81
2019-06-01T17:58:01.507Z,27.52
2019-06-01T18:00:33.910Z,27.33
2019-06-01T18:03:06.305Z,27.22
2019-06-01T18:05:38.719Z,27.01
2019-06-01T18:08:10.316Z,26.93
2019-06-01T18:10:53.468Z,26.70
2019-06-01T18:13:14.869Z,26.66
2019-06-01T18:15:49.856Z,26.45
2019-06-01T18:18:19.036Z,26.33
2019-06-01T18:20:50.207Z,26.33
2019-06-01T18:23:21.261Z,26.23
2019-06-01T18:25:52.470Z,26.05
2019-06-01T18:28:24.059Z,25.71
2019-06-01T18:30:55.130Z,25.71
2019-06-01T18:33:26.333Z,25.62
2019-06-01T18:35:57.455Z,25.46
2019-06-01T18:38:28.943Z,25.32
2019-06-01T18:41:09.415Z,25.21
2019-06-01T18:43:33.114Z,25.09
2019-06-01T18:46:05.698Z,25.02
2019-06-01T18:48:36.943Z,24.89
2019-06-01T18:51:08.266Z,24.78
2019-06-01T18:53:39.534Z,24.62
2019-06-01T18:56:10.586Z,24.48
2019-06-01T18:58:40.734Z,24.37
2019-06-01T19:01:12.540Z,24.28
2019-06-01T19:03:43.714Z,24.17
2019-06-01T19:06:15.940Z,24.05
2019-06-01T19:08:46.970Z,23.93
2019-06-01T19:11:34.757Z,23.76
2019-06-01T19:13:51.116Z,23.61
2019-06-01T19:16:23.821Z,23.49
2019-06-01T19:18:54.775Z,23.35
2019-06-01T19:21:26.100Z,23.19
2019-06-01T19:23:57.081Z,23.06
2019-06-01T19:26:28.161Z,22.93
2019-06-01T19:28:59.154Z,22.82
2019-06-01T19:31:29.272Z,22.71
2019-06-01T19:34:00.697Z,22.62
2019-06-01T19:36:32.635Z,22.47
2019-06-01T19:39:05.308Z,22.30
2019-06-01T19:41:44.978Z,22.23
2019-06-01T19:44:09.491Z,22.09
2019-06-01T19:46:40.479Z,22.02
2019-06-01T19:49:13.671Z,21.92
2019-06-01T19:51:45.890Z,21.83
2019-06-01T19:54:20.208Z,21.83
2019-06-01T19:56:54.089Z,21.82
2019-06-01T19:59:28.207Z,21.67
2019-06-01T20:01:59.204Z,21.47
2019-06-01T20:04:30.623Z,21.28
2019-06-01T20:07:01.626Z,21.18
2019-06-01T20:09:34.451Z,21.13
2019-06-01T20:12:11.565Z,21.17
2019-06-01T20:14:39.617Z,21.02
2019-06-01T20:17:11.722Z,20.85
2019-06-01T20:19:42.799Z,20.85
2019-06-01T20:22:14.924Z,20.76
2019-06-01T20:24:45.953Z,20.76
2019-06-01T20:27:17.574Z,20.65
2019-06-01T20:29:48.737Z,20.57
2019-06-01T20:32:20.128Z,20.31
2019-06-01T20:34:51.252Z,20.31
2019-06-01T20:37:25.231Z,20.24
2019-06-01T20:39:56.150Z,20.19
2019-06-01T20:42:32.333Z,20.39
2019-06-01T20:45:00.031Z,20.39
2019-06-01T20:47:30.106Z,20.42
2019-06-01T20:50:01.293Z,20.35
2019-06-01T20:52:32.289Z,20.23
2019-06-01T20:55:04.941Z,20.12
2019-06-01T20:57:36.080Z,20.03
2019-06-01T21:00:08.979Z,19.92
2019-06-01T21:02:40.067Z,19.81
2019-06-01T21:05:11.483Z,19.72
2019-06-01T21:07:42.463Z,19.68
2019-06-01T21:10:16.029Z,19.59
2019-06-01T21:12:47.334Z,19.54
2019-06-01T21:15:19.312Z,19.47
2019-06-01T21:17:50.641Z,19.38
2019-06-01T21:20:26.816Z,19.36
2019-06-01T21:22:54.031Z,19.33
2019-06-01T21:25:25.457Z,19.28
2019-06-01T21:27:56.774Z,19.17
2019-06-01T21:30:27.709Z,19.06
2019-06-01T21:32:58.857Z,19.00
2019-06-01T21:35:29.920Z,18.98
2019-06-01T21:38:00.986Z,18.90
2019-06-01T21:40:31.969Z,18.79
2019-06-01T21:43:23.004Z,18.69
2019-06-01T21:45:35.937Z,18.61
2019-06-01T21:48:07.338Z,18.53
2019-06-01T21:50:38.242Z,18.49
2019-06-01T21:53:09.474Z,18.50
2019-06-01T21:55:40.482Z,18.45
2019-06-01T21:58:10.802Z,18.38
2019-06-01T22:00:42.906Z,18.31
2019-06-01T22:03:13.884Z,18.23
2019-06-01T22:05:45.046Z,18.19
2019-06-01T22:08:17.173Z,18.14
2019-06-01T22:10:48.570Z,18.08
2019-06-01T22:13:23.758Z,17.99
2019-06-01T22:15:52.605Z,17.93
2019-06-01T22:18:23.828Z,17.90
2019-06-01T22:20:55.230Z,17.92
2019-06-01T22:23:26.385Z,17.88
2019-06-01T22:25:57.535Z,17.84
2019-06-01T22:28:28.791Z,17.79
2019-06-01T22:31:01.832Z,17.72
2019-06-01T22:33:33.148Z,17.65
2019-06-01T22:36:04.237Z,17.55
2019-06-01T22:38:35.500Z,17.46
2019-06-01T22:41:06.608Z,17.39
2019-06-01T22:43:46.229Z,17.32
2019-06-01T22:46:10.748Z,17.32
2019-06-01T22:48:42.072Z,17.28
2019-06-01T22:51:13.149Z,17.25
2019-06-01T22:53:44.468Z,17.24
2019-06-01T22:56:16.034Z,17.20
2019-06-01T22:58:47.284Z,17.14
2019-06-01T23:01:18.307Z,17.06
2019-06-01T23:03:48.484Z,17.00
2019-06-01T23:06:20.851Z,16.95
2019-06-01T23:08:52.017Z,16.91
2019-06-01T23:11:23.258Z,16.84
2019-06-01T23:13:54.228Z,16.78
2019-06-01T23:16:25.647Z,16.75
2019-06-01T23:18:56.672Z,16.77
2019-06-01T23:21:29.738Z,16.73
2019-06-01T23:24:01.003Z,16.66
2019-06-01T23:26:32.508Z,16.60
2019-06-01T23:29:03.596Z,16.48
2019-06-01T23:31:34.858Z,16.38
2019-06-01T23:34:05.857Z,16.35
2019-06-01T23:36:37.176Z,16.28
2019-06-01T23:39:08.537Z,16.26
2019-06-01T23:41:38.771Z,16.20
2019-06-01T23:44:12.629Z,16.14
2019-06-01T23:46:43.829Z,16.11
2019-06-01T23:49:15.021Z,16.03
2019-06-01T23:51:45.999Z,15.97
2019-06-01T23:54:17.205Z,15.93
2019-06-01T23:56:48.257Z,15.93
2019-06-01T23:59:19.391Z,15.86
